Time;durP1;ratioP1;P1;durP2;ratioP2;P2;SDS_P1;SDS_P2;PMS_P1;PMS_P2;Temp;Humidity;BMP_temperature;BMP_pressure;BME280_temperature;BME280_humidity;BME280_pressure;Samples;Min_cycle;Max_cycle;Signal;HPM_P1;HPM_P2
2021/09/19 00:00:14;;;;;;;62.10;32.38;;;;;;;12.81;81.76;93445.56;5111748;28;20034;-46
2021/09/19 00:02:40;;;;;;;58.22;32.53;;;;;;;12.85;81.95;93466.03;5111299;27;20153;-47
2021/09/19 00:05:07;;;;;;;80.15;36.13;;;;;;;12.75;82.26;93469.97;5111626;28;20102;-47
2021/09/19 00:07:33;;;;;;;131.25;41.67;;;;;;;12.63;82.18;93475.19;5111636;28;20019;-48
2021/09/19 00:09:58;;;;;;;94.00;42.53;;;;;;;12.52;81.78;93472.84;5111517;28;20019;-47
2021/09/19 00:12:23;;;;;;;59.80;30.92;;;;;;;12.43;82.77;93451.28;5111541;28;20541;-48
2021/09/19 00:14:49;;;;;;;70.07;40.70;;;;;;;12.47;83.00;93459.22;5111021;28;20413;-48
2021/09/19 00:17:17;;;;;;;71.75;36.55;;;;;;;12.37;83.51;93450.03;5110817;28;20027;-47
2021/09/19 00:19:42;;;;;;;72.78;34.45;;;;;;;12.54;83.75;93447.38;5111132;27;20038;-46
2021/09/19 00:22:08;;;;;;;62.80;32.05;;;;;;;12.61;83.32;93436.25;5110987;28;20024;-47
2021/09/19 00:24:33;;;;;;;72.43;38.30;;;;;;;12.69;83.35;93445.25;5111375;28;20023;-48
2021/09/19 00:27:00;;;;;;;60.10;30.63;;;;;;;12.76;82.78;93441.69;5111242;28;20049;-47
2021/09/19 00:29:25;;;;;;;62.90;29.73;;;;;;;12.75;82.44;93447.81;5111046;28;20020;-47
2021/09/19 00:31:51;;;;;;;61.67;32.20;;;;;;;12.72;83.38;93457.22;5110930;28;20038;-49
2021/09/19 00:34:16;;;;;;;67.63;32.92;;;;;;;12.87;83.19;93443.28;5110878;28;20028;-46
2021/09/19 00:36:41;;;;;;;86.32;37.20;;;;;;;12.77;81.56;93436.91;5110110;28;20043;-47
2021/09/19 00:39:08;;;;;;;59.38;34.70;;;;;;;12.71;82.22;93439.16;5097618;28;20028;-49
2021/09/19 00:41:34;;;;;;;65.15;40.85;;;;;;;12.82;82.44;93441.50;5104700;28;20506;-47
2021/09/19 00:44:04;;;;;;;70.82;36.90;;;;;;;12.82;81.91;93447.03;5110711;28;20050;-47
2021/09/19 00:46:29;;;;;;;79.78;35.88;;;;;;;12.68;82.05;93454.13;5110734;28;20554;-46
2021/09/19 00:48:55;;;;;;;76.63;35.25;;;;;;;12.50;82.94;93449.78;5111042;28;20023;-49
2021/09/19 00:51:20;;;;;;;89.30;36.88;;;;;;;12.56;82.77;93439.97;5110660;28;20045;-46
2021/09/19 00:53:47;;;;;;;69.47;33.17;;;;;;;12.50;82.78;93449.78;5111008;28;20404;-47
2021/09/19 00:56:21;;;;;;;64.35;30.25;;;;;;;12.60;83.18;93445.13;5109363;28;20496;-46
2021/09/19 00:58:49;;;;;;;71.90;36.75;;;;;;;12.64;83.07;93442.69;5109720;28;20512;-48
2021/09/19 01:01:15;;;;;;;59.22;30.38;;;;;;;12.69;83.53;93434.16;5110891;28;20031;-47
2021/09/19 01:03:40;;;;;;;70.93;33.70;;;;;;;12.78;84.33;93436.31;5110472;28;20533;-46
2021/09/19 01:06:06;;;;;;;69.88;34.53;;;;;;;12.78;83.16;93427.28;5109698;28;20015;-49
2021/09/19 01:08:31;;;;;;;63.08;30.88;;;;;;;12.59;83.12;93416.69;5110464;28;20030;-49
2021/09/19 01:10:57;;;;;;;66.35;34.63;;;;;;;12.43;84.12;93411.81;5109295;28;20106;-47
2021/09/19 01:13:23;;;;;;;68.10;31.80;;;;;;;12.47;84.60;93404.59;5109594;28;20024;-48
2021/09/19 01:15:49;;;;;;;83.68;34.17;;;;;;;12.68;84.99;93409.81;5102464;28;20035;-49
2021/09/19 01:18:17;;;;;;;60.13;34.20;;;;;;;12.72;84.35;93399.81;5090413;28;20024;-47
2021/09/19 01:20:43;;;;;;;69.83;36.40;;;;;;;12.81;83.97;93413.03;5090425;28;20408;-48
2021/09/19 01:23:10;;;;;;;69.13;33.10;;;;;;;12.85;83.85;93407.09;5090147;28;20422;-49
2021/09/19 01:25:37;;;;;;;56.00;30.95;;;;;;;12.94;83.36;93407.22;5090027;28;20020;-48
2021/09/19 01:28:03;;;;;;;76.68;35.20;;;;;;;12.75;83.22;93370.97;5089994;28;20024;-47
2021/09/19 01:30:29;;;;;;;74.70;32.78;;;;;;;12.94;83.36;93395.41;5090257;28;20024;-48
2021/09/19 01:32:55;;;;;;;61.55;23.83;;;;;;;12.79;83.66;93389.97;5090364;28;20020;-47
2021/09/19 01:35:20;;;;;;;57.95;33.03;;;;;;;12.94;83.31;93400.94;5102574;28;20027;-48
2021/09/19 01:37:46;;;;;;;56.53;29.05;;;;;;;13.02;83.29;93403.66;5110067;28;20452;-46
2021/09/19 01:40:12;;;;;;;67.10;30.48;;;;;;;13.07;83.27;93395.16;5107658;28;20023;-47
2021/09/19 01:42:38;;;;;;;69.03;31.15;;;;;;;13.05;83.28;93394.97;5090128;28;20103;-48
2021/09/19 01:45:04;;;;;;;71.47;31.70;;;;;;;13.11;83.13;93395.47;5088653;28;20549;-48
2021/09/19 01:47:30;;;;;;;66.50;30.77;;;;;;;13.25;82.96;93393.16;5090630;28;20027;-46
2021/09/19 01:49:55;;;;;;;63.35;28.45;;;;;;;13.24;83.00;93392.41;5093923;28;20024;-46
2021/09/19 01:52:21;;;;;;;70.03;34.88;;;;;;;13.09;82.44;93391.81;5093478;28;20448;-47
2021/09/19 01:54:47;;;;;;;74.78;37.40;;;;;;;13.03;82.48;93380.19;5093804;28;20460;-47
2021/09/19 01:57:20;;;;;;;71.22;33.22;;;;;;;12.91;82.67;93377.88;5093755;28;20028;-46
2021/09/19 01:59:49;;;;;;;62.15;33.85;;;;;;;12.97;83.09;93371.38;5093738;28;20081;-47
2021/09/19 02:02:14;;;;;;;60.25;32.05;;;;;;;12.88;82.79;93372.72;5093692;28;20023;-46
2021/09/19 02:04:40;;;;;;;60.75;37.40;;;;;;;12.77;82.44;93364.88;5093558;28;20562;-49
2021/09/19 02:07:06;;;;;;;67.43;32.70;;;;;;;12.83;82.46;93376.47;5093315;28;20034;-47
2021/09/19 02:09:31;;;;;;;81.32;36.00;;;;;;;12.70;82.67;93354.56;5093204;28;20408;-47
2021/09/19 02:11:56;;;;;;;66.22;35.33;;;;;;;12.78;83.43;93364.28;5093123;28;20032;-48
2021/09/19 02:14:22;;;;;;;61.10;26.60;;;;;;;12.69;82.99;93362.13;5108771;28;20030;-47
2021/09/19 02:16:47;;;;;;;71.63;31.58;;;;;;;12.71;82.44;93354.00;5096921;28;20024;-47
2021/09/19 02:19:13;;;;;;;66.57;38.90;;;;;;;12.72;82.36;93354.75;5093329;28;20023;-48
2021/09/19 02:21:38;;;;;;;83.00;34.20;;;;;;;12.47;82.77;93345.69;5093269;28;20024;-47
2021/09/19 02:24:04;;;;;;;78.00;32.80;;;;;;;12.38;84.11;93365.69;5093321;28;20469;-47
2021/09/19 02:26:29;;;;;;;92.00;34.92;;;;;;;12.18;85.46;93370.22;5093168;28;20043;-46
2021/09/19 02:28:55;;;;;;;94.70;36.00;;;;;;;11.98;86.29;93382.28;5092931;28;20628;-48
2021/09/19 02:31:20;;;;;;;99.70;41.75;;;;;;;11.97;86.80;93381.56;5103383;28;20085;-47
2021/09/19 02:33:46;;;;;;;69.88;40.90;;;;;;;12.05;87.68;93387.06;5113468;28;20081;-47
2021/09/19 02:36:11;;;;;;;70.50;34.67;;;;;;;12.05;87.25;93379.50;5113043;28;20036;-47
2021/09/19 02:38:36;;;;;;;78.18;35.83;;;;;;;12.17;86.90;93379.81;5113115;28;20040;-48
2021/09/19 02:41:02;;;;;;;80.90;39.97;;;;;;;12.25;86.28;93383.28;5103068;28;20027;-46
2021/09/19 02:43:27;;;;;;;64.47;33.78;;;;;;;12.05;86.59;93371.19;5092857;28;20099;-47
2021/09/19 02:45:53;;;;;;;80.50;37.15;;;;;;;11.91;86.68;93375.47;5092848;28;20027;-47
2021/09/19 02:48:18;;;;;;;69.45;36.33;;;;;;;12.03;86.90;93393.16;5092757;28;20026;-49
2021/09/19 02:50:44;;;;;;;66.22;31.58;;;;;;;12.18;86.92;93398.63;5092522;28;20039;-48
2021/09/19 02:53:09;;;;;;;74.70;35.47;;;;;;;12.37;86.16;93397.41;5092589;28;20020;-47
2021/09/19 02:55:35;;;;;;;69.85;29.25;;;;;;;12.44;85.77;93391.84;5092657;28;20107;-47
2021/09/19 02:58:00;;;;;;;64.32;35.35;;;;;;;12.57;85.79;93380.50;5092549;28;20051;-46
2021/09/19 03:00:26;;;;;;;74.10;35.08;;;;;;;12.64;85.59;93379.72;5091760;28;20043;-47
2021/09/19 03:02:52;;;;;;;79.00;38.65;;;;;;;12.74;85.14;93377.81;5098817;28;20031;-48
2021/09/19 03:05:18;;;;;;;60.67;30.50;;;;;;;12.53;84.65;93357.28;5112791;28;20070;-48
2021/09/19 03:07:43;;;;;;;82.82;36.83;;;;;;;12.88;84.09;93381.78;5111594;28;20454;-48
2021/09/19 03:10:10;;;;;;;65.55;28.20;;;;;;;12.96;83.85;93390.03;5112637;28;20032;-48
2021/09/19 03:12:36;;;;;;;76.30;32.97;;;;;;;12.99;83.36;93385.41;5112781;28;20048;-48
2021/09/19 03:15:02;;;;;;;75.50;32.40;;;;;;;12.92;83.85;93384.91;5110916;28;20389;-46
2021/09/19 03:17:28;;;;;;;64.22;26.50;;;;;;;12.76;84.09;93385.53;5090942;28;20036;-47
2021/09/19 03:19:53;;;;;;;66.47;29.95;;;;;;;12.90;83.78;93392.28;5092170;28;20470;-48
2021/09/19 03:22:18;;;;;;;65.35;27.90;;;;;;;12.94;83.61;93396.16;5092050;28;20028;-48
2021/09/19 03:24:44;;;;;;;73.00;37.20;;;;;;;13.02;83.37;93387.75;5092065;28;20082;-49
2021/09/19 03:27:09;;;;;;;74.07;36.28;;;;;;;13.06;83.07;93377.03;5098800;28;20515;-47
2021/09/19 03:29:35;;;;;;;84.03;33.60;;;;;;;13.06;83.54;93365.94;5112355;28;20516;-46
2021/09/19 03:32:00;;;;;;;61.92;30.85;;;;;;;13.14;82.91;93365.91;5112270;28;20020;-48
2021/09/19 03:34:26;;;;;;;85.32;32.60;;;;;;;13.14;82.93;93365.91;5112172;28;20470;-47
2021/09/19 03:36:52;;;;;;;77.50;34.35;;;;;;;13.13;82.88;93370.69;5111921;28;20047;-48
2021/09/19 03:39:17;;;;;;;55.20;31.30;;;;;;;13.19;83.07;93373.97;5112127;28;20416;-47
2021/09/19 03:41:43;;;;;;;62.92;28.95;;;;;;;13.21;83.20;93384.50;5096236;28;20501;-46
2021/09/19 03:44:10;;;;;;;75.75;32.58;;;;;;;13.11;83.02;93364.25;5091663;28;20402;-48
2021/09/19 03:46:37;;;;;;;79.43;33.53;;;;;;;13.17;82.86;93371.03;5091671;28;20012;-47
2021/09/19 03:49:02;;;;;;;74.63;32.60;;;;;;;13.19;82.76;93378.81;5090011;28;20489;-47
2021/09/19 03:51:28;;;;;;;69.00;37.30;;;;;;;13.23;82.52;93374.28;5091296;28;20027;-48
2021/09/19 03:53:53;;;;;;;65.55;33.95;;;;;;;13.24;82.52;93380.59;5091172;28;20020;-48
2021/09/19 03:56:19;;;;;;;79.88;41.58;;;;;;;13.25;82.45;93376.53;5091049;28;20032;-47
2021/09/19 03:58:45;;;;;;;64.15;32.65;;;;;;;13.15;82.05;93359.03;5090286;28;20458;-46
2021/09/19 04:01:10;;;;;;;72.13;38.33;;;;;;;13.06;82.04;93368.72;5090282;28;20099;-47
2021/09/19 04:03:36;;;;;;;69.97;36.35;;;;;;;12.98;82.34;93364.50;5090485;28;20021;-48
2021/09/19 04:06:01;;;;;;;63.20;30.35;;;;;;;13.03;82.94;93366.31;5091214;28;20016;-47
2021/09/19 04:08:26;;;;;;;68.88;34.25;;;;;;;12.99;82.57;93369.50;5091279;28;20032;-47
2021/09/19 04:10:52;;;;;;;75.43;34.78;;;;;;;13.03;82.97;93372.63;5090567;28;20024;-48
2021/09/19 04:13:17;;;;;;;84.78;38.45;;;;;;;12.95;82.62;93378.19;5090951;28;20012;-46
2021/09/19 04:15:43;;;;;;;72.35;38.05;;;;;;;12.67;83.06;93348.13;5097776;28;20027;-48
2021/09/19 04:18:08;;;;;;;60.40;32.78;;;;;;;12.86;83.30;93383.66;5111083;28;20416;-47
2021/09/19 04:20:34;;;;;;;68.32;33.38;;;;;;;12.81;84.08;93379.78;5111166;28;20023;-47
2021/09/19 04:23:00;;;;;;;69.65;33.55;;;;;;;12.88;83.74;93387.31;5107571;28;20024;-48
2021/09/19 04:25:26;;;;;;;76.82;34.05;;;;;;;12.85;83.90;93384.94;5091024;28;20038;-48
2021/09/19 04:27:51;;;;;;;71.72;30.40;;;;;;;12.94;83.81;93389.88;5090587;28;20043;-48
2021/09/19 04:30:17;;;;;;;70.70;34.42;;;;;;;12.83;83.99;93374.44;5090925;28;20024;-47
2021/09/19 04:32:43;;;;;;;77.75;43.67;;;;;;;13.02;83.51;93373.16;5090576;28;20509;-48
2021/09/19 04:35:08;;;;;;;66.78;36.05;;;;;;;13.09;83.22;93380.72;5090500;28;20031;-48
2021/09/19 04:37:34;;;;;;;65.97;36.42;;;;;;;13.13;82.91;93387.34;5090315;28;20047;-47
2021/09/19 04:39:59;;;;;;;97.47;41.08;;;;;;;13.15;83.25;93393.03;5091416;28;20054;-47
2021/09/19 04:42:25;;;;;;;67.85;32.65;;;;;;;13.14;83.59;93383.28;5110965;28;20113;-46
2021/09/19 04:44:51;;;;;;;73.88;30.67;;;;;;;13.13;83.38;93384.56;5110803;28;20575;-47
2021/09/19 04:47:16;;;;;;;81.75;37.38;;;;;;;13.08;83.95;93393.84;5111056;28;20030;-48
2021/09/19 04:49:42;;;;;;;70.72;38.25;;;;;;;13.11;83.53;93383.66;5110715;28;20023;-47
2021/09/19 04:52:08;;;;;;;67.80;35.90;;;;;;;13.09;83.56;93384.22;5110953;27;20032;-47
2021/09/19 04:54:33;;;;;;;81.07;35.72;;;;;;;13.02;84.10;93379.44;5110921;28;20027;-50
2021/09/19 04:57:00;;;;;;;70.13;38.65;;;;;;;13.28;82.82;93394.78;5110678;28;20504;-47
2021/09/19 04:59:25;;;;;;;69.72;32.40;;;;;;;13.31;83.06;93394.41;5110882;28;20019;-47
2021/09/19 05:01:51;;;;;;;69.43;39.08;;;;;;;13.35;82.59;93393.97;5110914;28;20016;-46
2021/09/19 05:04:17;;;;;;;62.78;31.83;;;;;;;13.39;82.98;93394.31;5110534;28;20660;-47
2021/09/19 05:06:42;;;;;;;87.40;38.00;;;;;;;13.45;82.79;93403.88;5110878;28;20047;-48
2021/09/19 05:09:08;;;;;;;65.93;33.40;;;;;;;13.54;82.20;93399.72;5110799;28;20047;-47
2021/09/19 05:11:34;;;;;;;74.57;29.35;;;;;;;13.49;82.58;93406.25;5110746;28;20016;-47
2021/09/19 05:13:59;;;;;;;69.78;33.10;;;;;;;13.52;82.33;93396.78;5110515;28;20027;-47
2021/09/19 05:16:26;;;;;;;75.43;28.33;;;;;;;13.55;82.14;93410.25;5110417;28;20025;-47
2021/09/19 05:18:52;;;;;;;76.40;33.63;;;;;;;13.55;81.89;93403.97;5110289;28;20035;-48
2021/09/19 05:21:17;;;;;;;64.22;35.88;;;;;;;13.55;81.72;93404.72;5090123;28;20032;-48
2021/09/19 05:23:43;;;;;;;76.18;38.45;;;;;;;13.63;82.26;93408.16;5092696;28;20028;-47
2021/09/19 05:26:08;;;;;;;66.38;33.30;;;;;;;13.68;82.03;93417.53;5094138;28;20063;-47
2021/09/19 05:28:33;;;;;;;75.38;38.85;;;;;;;13.63;81.97;93410.91;5093995;28;20028;-47
2021/09/19 05:30:59;;;;;;;77.88;38.40;;;;;;;13.51;82.24;93409.19;5094000;28;20024;-48
2021/09/19 05:33:24;;;;;;;71.00;37.63;;;;;;;13.55;82.00;93399.16;5093741;28;20020;-47
2021/09/19 05:35:50;;;;;;;66.32;36.15;;;;;;;13.60;82.03;93398.19;5094130;28;20031;-47
2021/09/19 05:38:16;;;;;;;81.38;39.63;;;;;;;13.65;81.85;93382.59;5093703;28;20040;-47
2021/09/19 05:40:42;;;;;;;61.88;34.22;;;;;;;13.67;81.79;93380.72;5100951;28;20408;-47
2021/09/19 05:43:07;;;;;;;61.65;37.22;;;;;;;13.77;81.10;93374.53;5114163;28;20019;-49
2021/09/19 05:45:33;;;;;;;76.45;35.80;;;;;;;13.80;80.63;93374.13;5114045;28;20053;-48
2021/09/19 05:47:59;;;;;;;59.15;33.60;;;;;;;13.87;80.40;93367.00;5113998;27;20028;-48
2021/09/19 05:50:25;;;;;;;78.28;35.60;;;;;;;13.90;79.86;93368.66;5114331;28;20023;-47
2021/09/19 05:52:51;;;;;;;69.18;30.75;;;;;;;13.88;80.58;93354.63;5114273;28;20031;-49
2021/09/19 05:55:17;;;;;;;67.90;31.27;;;;;;;14.01;79.99;93357.06;5114149;28;20129;-48
2021/09/19 05:57:42;;;;;;;74.82;33.40;;;;;;;14.11;79.38;93358.59;5113883;28;20408;-48
2021/09/19 06:00:09;;;;;;;77.28;37.67;;;;;;;14.28;79.39;93346.69;5113800;28;20030;-48
2021/09/19 06:02:35;;;;;;;71.22;34.90;;;;;;;14.45;78.85;93346.69;5113807;28;20026;-47
2021/09/19 06:05:00;;;;;;;60.20;28.88;;;;;;;14.68;78.69;93349.88;5113717;28;20042;-47
2021/09/19 06:07:26;;;;;;;59.97;32.97;;;;;;;14.96;78.39;93365.94;5113720;28;20084;-48
2021/09/19 06:09:51;;;;;;;65.95;30.33;;;;;;;15.12;77.18;93372.00;5113681;28;20032;-48
2021/09/19 06:12:17;;;;;;;73.60;39.78;;;;;;;15.28;76.99;93362.09;5113900;28;20020;-47
2021/09/19 06:14:43;;;;;;;67.75;36.25;;;;;;;15.35;75.80;93354.94;5113465;28;20484;-48
2021/09/19 06:17:08;;;;;;;68.18;30.38;;;;;;;15.34;74.26;93361.81;5111367;28;20036;-49
2021/09/19 06:19:34;;;;;;;56.33;33.33;;;;;;;15.49;74.62;93364.34;5113695;27;20031;-48
2021/09/19 06:22:01;;;;;;;83.35;43.38;;;;;;;15.53;73.54;93370.22;5113432;28;20567;-49
2021/09/19 06:24:28;;;;;;;72.18;36.65;;;;;;;15.43;73.30;93347.97;5113307;28;20016;-47
2021/09/19 06:26:57;;;;;;;87.32;37.10;;;;;;;15.60;73.11;93364.53;5113320;28;20076;-49
2021/09/19 06:29:23;;;;;;;73.03;37.47;;;;;;;15.86;73.62;93368.50;5113235;28;20037;-48
2021/09/19 06:31:48;;;;;;;70.13;35.75;;;;;;;15.69;72.46;93335.97;5113284;28;20156;-50
2021/09/19 06:34:14;;;;;;;69.88;32.58;;;;;;;15.98;72.97;93374.22;5112469;28;20103;-47
2021/09/19 06:36:39;;;;;;;71.05;32.38;;;;;;;16.11;71.73;93377.31;5112800;28;20587;-49
2021/09/19 06:39:05;;;;;;;60.35;33.33;;;;;;;16.23;71.30;93378.19;5113443;28;20024;-48
2021/09/19 06:41:30;;;;;;;68.80;34.35;;;;;;;16.26;70.44;93377.00;5099158;28;20028;-47
2021/09/19 06:43:56;;;;;;;62.70;36.90;;;;;;;16.28;70.72;93374.38;5092908;28;20016;-48
2021/09/19 06:46:23;;;;;;;57.17;33.13;;;;;;;16.32;70.78;93377.44;5092588;28;20012;-49
2021/09/19 06:48:49;;;;;;;89.95;50.40;;;;;;;16.51;69.10;93376.69;5092871;28;20085;-48
2021/09/19 06:51:14;;;;;;;203.20;80.20;;;;;;;16.75;69.31;93384.00;5092455;28;20032;-48
2021/09/19 06:53:40;;;;;;;217.40;117.28;;;;;;;16.93;68.72;93379.69;5092429;28;20028;-50
2021/09/19 06:56:05;;;;;;;1999.90;766.13;;;;;;;17.30;68.04;93389.22;5092214;28;20028;-49
2021/09/19 06:58:31;;;;;;;1999.90;999.90;;;;;;;17.72;66.39;93390.63;5092358;28;20031;-48
2021/09/19 07:00:57;;;;;;;1999.90;999.90;;;;;;;17.90;66.55;93392.59;5092224;28;20449;-49
2021/09/19 07:03:23;;;;;;;1999.90;999.90;;;;;;;18.10;64.89;93393.91;5092479;28;20493;-47
2021/09/19 07:05:48;;;;;;;1999.90;999.90;;;;;;;18.01;64.99;93403.09;5092491;28;20016;-48
2021/09/19 07:08:14;;;;;;;1555.32;999.90;;;;;;;17.90;63.81;93395.38;5092433;28;20030;-48
2021/09/19 07:10:39;;;;;;;1551.22;999.90;;;;;;;17.83;64.53;93387.94;5092129;28;20497;-49
2021/09/19 07:13:05;;;;;;;1408.20;999.90;;;;;;;18.17;64.70;93395.75;5106561;28;20419;-49
2021/09/19 07:15:31;;;;;;;1091.72;981.28;;;;;;;18.33;62.48;93384.91;5112036;28;20066;-49
2021/09/19 07:17:57;;;;;;;1006.20;921.63;;;;;;;18.65;62.33;93400.22;5112575;28;20631;-49
2021/09/19 07:20:22;;;;;;;900.05;816.20;;;;;;;18.86;61.11;93395.31;5112488;28;20015;-48
2021/09/19 07:22:48;;;;;;;900.10;818.75;;;;;;;19.13;61.20;93394.13;5112277;28;20023;-48
2021/09/19 07:25:15;;;;;;;857.22;780.67;;;;;;;19.09;60.96;93391.81;5112426;28;20016;-47
2021/09/19 07:27:41;;;;;;;911.10;825.15;;;;;;;19.22;60.74;93382.84;5112155;28;20020;-48
2021/09/19 07:30:08;;;;;;;1206.53;950.80;;;;;;;19.96;58.93;93385.88;5112311;28;20550;-49
2021/09/19 07:32:34;;;;;;;1293.60;999.90;;;;;;;21.75;53.37;93385.31;5111980;28;20019;-47
2021/09/19 07:35:01;;;;;;;1309.70;999.90;;;;;;;23.08;49.99;93385.56;5111861;28;20030;-52
2021/09/19 07:37:27;;;;;;;1229.75;999.90;;;;;;;23.78;47.49;93385.97;5111866;28;20062;-52
2021/09/19 07:39:52;;;;;;;1209.13;999.90;;;;;;;24.47;45.81;93372.03;5111897;28;20443;-49
2021/09/19 07:42:18;;;;;;;1227.60;999.90;;;;;;;24.30;45.56;93386.84;5091419;28;20078;-52
2021/09/19 07:44:44;;;;;;;1211.82;999.90;;;;;;;23.68;46.94;93382.72;5091719;28;20020;-48
2021/09/19 07:47:10;;;;;;;1207.35;999.90;;;;;;;23.28;47.72;93380.88;5091259;28;20039;-49
2021/09/19 07:49:36;;;;;;;1205.32;999.90;;;;;;;23.15;48.31;93365.50;5091614;28;20028;-48
2021/09/19 07:52:04;;;;;;;1160.65;999.90;;;;;;;23.41;46.65;93379.38;5091193;28;20031;-52
2021/09/19 07:54:30;;;;;;;1188.22;999.90;;;;;;;23.62;47.65;93387.38;5091520;28;20409;-49
2021/09/19 07:56:55;;;;;;;1168.95;999.90;;;;;;;23.17;47.09;93381.78;5091411;28;20024;-49
2021/09/19 07:59:21;;;;;;;1171.20;999.90;;;;;;;23.38;48.43;93384.19;5091391;28;20091;-50
2021/09/19 08:01:46;;;;;;;1176.70;999.90;;;;;;;24.30;45.14;93384.72;5091184;28;20028;-51
2021/09/19 08:04:12;;;;;;;1205.05;999.90;;;;;;;24.61;44.62;93350.00;5091173;28;20405;-49
2021/09/19 08:06:37;;;;;;;1140.82;999.90;;;;;;;25.36;42.21;93381.97;5091056;28;20432;-48
2021/09/19 08:09:03;;;;;;;1134.25;999.90;;;;;;;26.47;41.35;93381.09;5103287;28;20020;-50
2021/09/19 08:11:28;;;;;;;921.50;853.42;;;;;;;27.71;38.03;93375.88;5111306;28;20432;-49
2021/09/19 08:13:57;;;;;;;808.25;757.38;;;;;;;28.45;36.72;93391.47;5111514;28;20023;-49
2021/09/19 08:16:23;;;;;;;828.53;774.65;;;;;;;28.78;35.81;93380.97;5111069;28;20027;-51
2021/09/19 08:18:49;;;;;;;846.00;791.15;;;;;;;29.20;35.98;93390.53;5111293;28;20099;-48
2021/09/19 08:21:14;;;;;;;835.38;783.13;;;;;;;30.22;34.24;93383.56;5111394;28;20071;-48
2021/09/19 08:23:40;;;;;;;649.03;613.05;;;;;;;30.14;32.61;93386.25;5111123;28;20547;-51
2021/09/19 08:26:05;;;;;;;680.45;641.25;;;;;;;29.23;34.38;93394.88;5111270;28;20023;-49
2021/09/19 08:28:31;;;;;;;883.15;826.47;;;;;;;28.24;36.87;93395.13;5111101;28;20503;-49
2021/09/19 08:30:56;;;;;;;981.72;910.35;;;;;;;27.40;38.94;93398.31;5111272;28;20110;-49
2021/09/19 08:33:26;;;;;;;963.13;895.38;;;;;;;26.93;40.16;93398.94;5111219;28;20019;-49
2021/09/19 08:35:56;;;;;;;915.20;853.10;;;;;;;26.45;40.94;93391.59;5111084;27;20026;-50
2021/09/19 08:38:22;;;;;;;869.97;813.25;;;;;;;25.20;42.94;93390.53;5110617;28;20117;-48
2021/09/19 08:40:49;;;;;;;960.63;893.13;;;;;;;24.49;45.13;93403.16;5103404;28;20424;-49
2021/09/19 08:43:15;;;;;;;1087.25;992.67;;;;;;;24.56;46.61;93399.22;5090315;28;20489;-49
2021/09/19 08:45:41;;;;;;;1119.60;999.90;;;;;;;24.59;46.06;93404.31;5089541;28;20031;-49
2021/09/19 08:48:09;;;;;;;1102.93;999.33;;;;;;;24.36;46.13;93398.38;5089045;28;20032;-50
2021/09/19 08:50:35;;;;;;;1232.20;999.90;;;;;;;24.06;47.53;93403.47;5090644;28;20024;-48
2021/09/19 08:53:00;;;;;;;1222.35;999.90;;;;;;;24.32;47.46;93390.44;5090465;28;20550;-48
2021/09/19 08:55:26;;;;;;;1146.47;999.90;;;;;;;24.93;46.37;93393.69;5090177;28;20409;-48
2021/09/19 08:57:51;;;;;;;1147.00;999.90;;;;;;;25.14;45.00;93395.97;5090040;28;20044;-49
2021/09/19 09:00:18;;;;;;;1171.40;999.90;;;;;;;25.21;45.43;93382.81;5090508;28;20024;-49
2021/09/19 09:02:54;;;;;;;1063.22;978.72;;;;;;;26.29;43.85;93398.16;5090178;28;20024;-49
2021/09/19 09:05:29;;;;;;;863.67;807.85;;;;;;;27.53;41.70;93392.34;5102770;28;20023;-50
2021/09/19 09:07:56;;;;;;;920.45;858.05;;;;;;;29.08;37.51;93381.69;5110829;28;20030;-50
2021/09/19 09:10:34;;;;;;;813.25;760.40;;;;;;;30.85;34.79;93379.03;5110776;28;20054;-50
2021/09/19 09:13:06;;;;;;;346.20;328.10;;;;;;;32.17;31.44;93369.66;5110495;28;20028;-49
2021/09/19 09:15:57;;;;;;;27.60;26.23;;;;;;;32.64;28.81;93379.50;5104809;28;20020;-50
2021/09/19 09:18:34;;;;;;;6.05;5.70;;;;;;;32.53;29.94;93375.09;5082600;28;20422;-49
2021/09/19 09:21:04;;;;;;;10.32;9.65;;;;;;;33.43;29.57;93371.66;5090111;28;20027;-52
2021/09/19 09:23:33;;;;;;;3.78;3.40;;;;;;;34.06;28.13;93372.81;5090038;28;20070;-50
2021/09/19 09:26:23;;;;;;;3.10;2.80;;;;;;;34.67;26.36;93371.63;5090065;28;20028;-49
2021/09/19 09:28:52;;;;;;;2.92;2.47;;;;;;;34.65;25.88;93383.09;5090123;28;20027;-50
2021/09/19 09:31:34;;;;;;;4.60;2.95;;;;;;;34.09;27.57;93366.38;5090237;28;20410;-49
2021/09/19 09:34:11;;;;;;;3.78;3.47;;;;;;;32.05;29.54;93365.94;5090345;28;20428;-50
2021/09/19 09:36:54;;;;;;;4.28;3.95;;;;;;;31.85;31.76;93354.22;5089896;28;20052;-51
2021/09/19 09:39:31;;;;;;;4.15;3.38;;;;;;;32.36;30.90;93347.00;5090277;28;20032;-51
2021/09/19 09:42:19;;;;;;;3.53;3.27;;;;;;;32.77;29.64;93357.47;5107560;28;20047;-49
2021/09/19 09:44:48;;;;;;;4.22;3.83;;;;;;;32.89;30.87;93346.88;5109854;28;20035;-51
2021/09/19 09:47:18;;;;;;;4.53;3.83;;;;;;;32.73;31.52;93357.44;5110176;28;20032;-54
2021/09/19 09:49:59;;;;;;;4.63;3.33;;;;;;;33.46;29.61;93345.19;5110513;28;20028;-52
2021/09/19 09:52:34;;;;;;;4.20;3.90;;;;;;;30.58;34.62;93338.66;5110190;28;20027;-52
2021/09/19 09:55:10;;;;;;;10.02;5.10;;;;;;;32.14;32.42;93339.63;5110146;28;20024;-52
2021/09/19 09:57:36;;;;;;;5.25;4.32;;;;;;;33.21;31.19;93337.13;5110430;28;20450;-53
2021/09/19 10:00:15;;;;;;;4.47;3.67;;;;;;;32.80;30.40;93331.06;5110345;28;20031;-53
2021/09/19 10:02:42;;;;;;;5.03;4.20;;;;;;;31.69;31.76;93328.31;5089731;28;20032;-49
